sensor_id;sensor_type;location;lat;lon;timestamp;P1;durP1;ratioP1;P2;durP2;ratioP2
15858;SDS011;8029;52.202;7.308;2023-04-01T00:00:52;1.20;;;1.10;;
15858;SDS011;8029;52.202;7.308;2023-04-01T00:03:19;3.78;;;1.15;;
15858;SDS011;8029;52.202;7.308;2023-04-01T00:05:45;1.60;;;1.50;;
15858;SDS011;8029;52.202;7.308;2023-04-01T00:08:11;0.77;;;0.75;;
15858;SDS011;8029;52.202;7.308;2023-04-01T00:10:37;3.15;;;1.55;;
15858;SDS011;8029;52.202;7.308;2023-04-01T00:13:03;1.38;;;1.17;;
15858;SDS011;8029;52.202;7.308;2023-04-01T00:15:29;4.97;;;2.38;;
15858;SDS011;8029;52.202;7.308;2023-04-01T00:17:55;4.85;;;1.90;;
15858;SDS011;8029;52.202;7.308;2023-04-01T00:20:21;1.92;;;1.73;;
15858;SDS011;8029;52.202;7.308;2023-04-01T00:22:47;1.63;;;1.52;;
15858;SDS011;8029;52.202;7.308;2023-04-01T00:25:16;1.88;;;1.63;;
15858;SDS011;8029;52.202;7.308;2023-04-01T00:27:43;3.20;;;1.90;;
15858;SDS011;8029;52.202;7.308;2023-04-01T00:30:09;1.48;;;1.38;;
15858;SDS011;8029;52.202;7.308;2023-04-01T00:32:35;1.63;;;1.52;;
15858;SDS011;8029;52.202;7.308;2023-04-01T00:35:02;0.93;;;0.93;;
15858;SDS011;8029;52.202;7.308;2023-04-01T00:37:28;2.58;;;1.70;;
15858;SDS011;8029;52.202;7.308;2023-04-01T00:39:54;1.60;;;1.50;;
15858;SDS011;8029;52.202;7.308;2023-04-01T00:42:20;1.42;;;1.27;;
15858;SDS011;8029;52.202;7.308;2023-04-01T00:44:53;1.55;;;1.45;;
15858;SDS011;8029;52.202;7.308;2023-04-01T00:47:20;1.00;;;0.88;;
15858;SDS011;8029;52.202;7.308;2023-04-01T00:49:47;1.58;;;1.45;;
15858;SDS011;8029;52.202;7.308;2023-04-01T00:52:15;1.27;;;1.17;;
15858;SDS011;8029;52.202;7.308;2023-04-01T00:54:43;1.60;;;1.50;;
15858;SDS011;8029;52.202;7.308;2023-04-01T00:57:15;1.30;;;1.27;;
15858;SDS011;8029;52.202;7.308;2023-04-01T00:59:44;1.27;;;0.88;;
15858;SDS011;8029;52.202;7.308;2023-04-01T01:02:12;0.90;;;0.90;;
15858;SDS011;8029;52.202;7.308;2023-04-01T01:04:38;1.15;;;1.13;;
15858;SDS011;8029;52.202;7.308;2023-04-01T01:12:33;1.33;;;0.88;;
15858;SDS011;8029;52.202;7.308;2023-04-01T01:15:20;1.10;;;1.10;;
15858;SDS011;8029;52.202;7.308;2023-04-01T01:22:51;1.50;;;1.40;;
15858;SDS011;8029;52.202;7.308;2023-04-01T01:27:55;1.50;;;1.40;;
15858;SDS011;8029;52.202;7.308;2023-04-01T01:30:58;1.38;;;1.23;;
15858;SDS011;8029;52.202;7.308;2023-04-01T01:33:49;1.42;;;1.25;;
15858;SDS011;8029;52.202;7.308;2023-04-01T01:36:08;2.25;;;1.90;;
15858;SDS011;8029;52.202;7.308;2023-04-01T01:38:36;2.08;;;1.80;;
15858;SDS011;8029;52.202;7.308;2023-04-01T01:41:04;1.20;;;1.20;;
15858;SDS011;8029;52.202;7.308;2023-04-01T01:43:40;1.83;;;1.35;;
15858;SDS011;8029;52.202;7.308;2023-04-01T01:46:09;1.40;;;1.30;;
15858;SDS011;8029;52.202;7.308;2023-04-01T01:48:36;4.72;;;1.23;;
15858;SDS011;8029;52.202;7.308;2023-04-01T01:51:06;1.08;;;1.08;;
15858;SDS011;8029;52.202;7.308;2023-04-01T01:53:32;1.10;;;1.05;;
15858;SDS011;8029;52.202;7.308;2023-04-01T01:55:59;2.20;;;1.23;;
15858;SDS011;8029;52.202;7.308;2023-04-01T01:58:35;1.50;;;1.40;;
15858;SDS011;8029;52.202;7.308;2023-04-01T02:01:06;1.73;;;1.30;;
15858;SDS011;8029;52.202;7.308;2023-04-01T02:03:34;1.25;;;1.15;;
15858;SDS011;8029;52.202;7.308;2023-04-01T02:06:02;1.00;;;1.00;;
15858;SDS011;8029;52.202;7.308;2023-04-01T02:10:59;0.70;;;0.70;;
15858;SDS011;8029;52.202;7.308;2023-04-01T02:13:29;1.67;;;1.20;;
15858;SDS011;8029;52.202;7.308;2023-04-01T02:15:58;0.82;;;0.82;;
15858;SDS011;8029;52.202;7.308;2023-04-01T02:18:25;1.17;;;1.10;;
15858;SDS011;8029;52.202;7.308;2023-04-01T02:20:51;1.30;;;1.17;;
15858;SDS011;8029;52.202;7.308;2023-04-01T02:23:17;1.15;;;0.88;;
15858;SDS011;8029;52.202;7.308;2023-04-01T02:25:44;1.35;;;1.25;;
15858;SDS011;8029;52.202;7.308;2023-04-01T02:28:10;0.98;;;0.98;;
15858;SDS011;8029;52.202;7.308;2023-04-01T02:30:38;0.80;;;0.65;;
15858;SDS011;8029;52.202;7.308;2023-04-01T02:33:05;0.70;;;0.70;;
15858;SDS011;8029;52.202;7.308;2023-04-01T02:35:33;0.45;;;0.45;;
15858;SDS011;8029;52.202;7.308;2023-04-01T02:37:59;0.90;;;0.88;;
15858;SDS011;8029;52.202;7.308;2023-04-01T02:40:26;0.57;;;0.57;;
15858;SDS011;8029;52.202;7.308;2023-04-01T02:42:52;0.85;;;0.85;;
15858;SDS011;8029;52.202;7.308;2023-04-01T02:45:18;0.60;;;0.60;;
15858;SDS011;8029;52.202;7.308;2023-04-01T02:47:44;0.73;;;0.73;;
15858;SDS011;8029;52.202;7.308;2023-04-01T02:50:10;0.43;;;0.43;;
15858;SDS011;8029;52.202;7.308;2023-04-01T02:52:36;0.57;;;0.57;;
15858;SDS011;8029;52.202;7.308;2023-04-01T02:55:02;0.75;;;0.75;;
15858;SDS011;8029;52.202;7.308;2023-04-01T02:57:29;0.63;;;0.63;;
15858;SDS011;8029;52.202;7.308;2023-04-01T02:59:55;0.70;;;0.70;;
15858;SDS011;8029;52.202;7.308;2023-04-01T03:02:21;1.30;;;1.23;;
15858;SDS011;8029;52.202;7.308;2023-04-01T03:04:47;0.70;;;0.70;;
15858;SDS011;8029;52.202;7.308;2023-04-01T03:07:13;0.80;;;0.80;;
15858;SDS011;8029;52.202;7.308;2023-04-01T03:09:39;0.65;;;0.65;;
15858;SDS011;8029;52.202;7.308;2023-04-01T03:12:05;0.60;;;0.60;;
15858;SDS011;8029;52.202;7.308;2023-04-01T03:14:31;0.85;;;0.85;;
15858;SDS011;8029;52.202;7.308;2023-04-01T03:16:57;0.82;;;0.70;;
15858;SDS011;8029;52.202;7.308;2023-04-01T03:19:23;1.23;;;1.13;;
15858;SDS011;8029;52.202;7.308;2023-04-01T03:21:49;1.27;;;1.17;;
15858;SDS011;8029;52.202;7.308;2023-04-01T03:24:15;1.10;;;1.10;;
15858;SDS011;8029;52.202;7.308;2023-04-01T03:26:41;2.10;;;1.55;;
15858;SDS011;8029;52.202;7.308;2023-04-01T03:29:07;1.13;;;1.02;;
15858;SDS011;8029;52.202;7.308;2023-04-01T03:31:33;0.77;;;0.77;;
15858;SDS011;8029;52.202;7.308;2023-04-01T03:33:59;1.20;;;1.10;;
15858;SDS011;8029;52.202;7.308;2023-04-01T03:36:25;0.70;;;0.70;;
15858;SDS011;8029;52.202;7.308;2023-04-01T03:38:51;0.80;;;0.80;;
15858;SDS011;8029;52.202;7.308;2023-04-01T03:41:17;0.60;;;0.60;;
15858;SDS011;8029;52.202;7.308;2023-04-01T03:43:44;0.70;;;0.70;;
15858;SDS011;8029;52.202;7.308;2023-04-01T03:46:10;0.63;;;0.63;;
15858;SDS011;8029;52.202;7.308;2023-04-01T03:48:36;0.70;;;0.68;;
15858;SDS011;8029;52.202;7.308;2023-04-01T03:51:06;0.80;;;0.80;;
15858;SDS011;8029;52.202;7.308;2023-04-01T03:53:32;1.00;;;0.98;;
15858;SDS011;8029;52.202;7.308;2023-04-01T03:55:58;0.88;;;0.73;;
15858;SDS011;8029;52.202;7.308;2023-04-01T03:58:24;0.80;;;0.80;;
15858;SDS011;8029;52.202;7.308;2023-04-01T04:00:50;0.80;;;0.80;;
15858;SDS011;8029;52.202;7.308;2023-04-01T04:03:16;1.27;;;1.17;;
15858;SDS011;8029;52.202;7.308;2023-04-01T04:05:46;0.57;;;0.57;;
15858;SDS011;8029;52.202;7.308;2023-04-01T04:08:12;1.15;;;0.82;;
15858;SDS011;8029;52.202;7.308;2023-04-01T04:10:38;0.95;;;0.80;;
15858;SDS011;8029;52.202;7.308;2023-04-01T04:13:04;1.30;;;1.08;;
15858;SDS011;8029;52.202;7.308;2023-04-01T04:15:31;0.90;;;0.90;;
15858;SDS011;8029;52.202;7.308;2023-04-01T04:17:56;1.33;;;1.02;;
15858;SDS011;8029;52.202;7.308;2023-04-01T04:20:22;1.00;;;0.95;;
15858;SDS011;8029;52.202;7.308;2023-04-01T04:22:48;2.45;;;1.10;;
15858;SDS011;8029;52.202;7.308;2023-04-01T04:25:14;0.93;;;0.93;;
15858;SDS011;8029;52.202;7.308;2023-04-01T04:27:40;1.02;;;0.90;;
15858;SDS011;8029;52.202;7.308;2023-04-01T04:30:07;1.25;;;1.23;;
15858;SDS011;8029;52.202;7.308;2023-04-01T04:32:33;1.10;;;1.00;;
15858;SDS011;8029;52.202;7.308;2023-04-01T04:34:59;0.75;;;0.75;;
15858;SDS011;8029;52.202;7.308;2023-04-01T04:37:25;1.10;;;1.10;;
15858;SDS011;8029;52.202;7.308;2023-04-01T04:39:51;1.25;;;1.15;;
15858;SDS011;8029;52.202;7.308;2023-04-01T04:42:17;0.93;;;0.93;;
15858;SDS011;8029;52.202;7.308;2023-04-01T04:44:43;0.98;;;0.98;;
15858;SDS011;8029;52.202;7.308;2023-04-01T04:47:09;1.40;;;1.20;;
15858;SDS011;8029;52.202;7.308;2023-04-01T04:49:35;1.00;;;1.00;;
15858;SDS011;8029;52.202;7.308;2023-04-01T04:52:01;1.00;;;1.00;;
15858;SDS011;8029;52.202;7.308;2023-04-01T04:54:27;1.00;;;1.00;;
15858;SDS011;8029;52.202;7.308;2023-04-01T04:56:53;1.33;;;1.23;;
15858;SDS011;8029;52.202;7.308;2023-04-01T04:59:19;1.20;;;1.20;;
15858;SDS011;8029;52.202;7.308;2023-04-01T05:01:45;1.60;;;1.50;;
15858;SDS011;8029;52.202;7.308;2023-04-01T05:04:11;0.73;;;0.73;;
15858;SDS011;8029;52.202;7.308;2023-04-01T05:06:37;1.17;;;1.15;;
15858;SDS011;8029;52.202;7.308;2023-04-01T05:09:03;2.25;;;2.05;;
15858;SDS011;8029;52.202;7.308;2023-04-01T05:11:29;1.60;;;1.50;;
15858;SDS011;8029;52.202;7.308;2023-04-01T05:13:55;1.55;;;1.45;;
15858;SDS011;8029;52.202;7.308;2023-04-01T05:16:21;1.13;;;1.13;;
15858;SDS011;8029;52.202;7.308;2023-04-01T05:18:47;1.02;;;1.00;;
15858;SDS011;8029;52.202;7.308;2023-04-01T05:21:14;1.38;;;1.30;;
15858;SDS011;8029;52.202;7.308;2023-04-01T05:23:40;1.17;;;1.17;;
15858;SDS011;8029;52.202;7.308;2023-04-01T05:26:07;1.17;;;1.17;;
15858;SDS011;8029;52.202;7.308;2023-04-01T05:28:34;1.27;;;1.20;;
15858;SDS011;8029;52.202;7.308;2023-04-01T05:31:00;2.25;;;1.75;;
15858;SDS011;8029;52.202;7.308;2023-04-01T05:33:27;4.53;;;4.00;;
15858;SDS011;8029;52.202;7.308;2023-04-01T05:35:53;2.45;;;1.40;;
15858;SDS011;8029;52.202;7.308;2023-04-01T05:38:19;1.80;;;1.70;;
15858;SDS011;8029;52.202;7.308;2023-04-01T05:40:45;1.40;;;1.30;;
15858;SDS011;8029;52.202;7.308;2023-04-01T05:43:11;1.15;;;1.15;;
15858;SDS011;8029;52.202;7.308;2023-04-01T05:45:37;1.58;;;1.48;;
15858;SDS011;8029;52.202;7.308;2023-04-01T05:48:03;1.83;;;1.73;;
15858;SDS011;8029;52.202;7.308;2023-04-01T05:50:30;1.88;;;1.77;;
15858;SDS011;8029;52.202;7.308;2023-04-01T05:52:56;1.95;;;1.85;;
15858;SDS011;8029;52.202;7.308;2023-04-01T05:55:22;1.98;;;1.88;;
15858;SDS011;8029;52.202;7.308;2023-04-01T05:57:48;1.35;;;1.25;;
15858;SDS011;8029;52.202;7.308;2023-04-01T06:00:15;1.65;;;1.55;;
15858;SDS011;8029;52.202;7.308;2023-04-01T06:02:41;1.70;;;1.60;;
15858;SDS011;8029;52.202;7.308;2023-04-01T06:05:12;2.15;;;1.58;;
15858;SDS011;8029;52.202;7.308;2023-04-01T06:07:39;5.10;;;2.65;;
15858;SDS011;8029;52.202;7.308;2023-04-01T06:10:23;2.92;;;2.70;;
15858;SDS011;8029;52.202;7.308;2023-04-01T06:15:23;2.85;;;1.77;;
15858;SDS011;8029;52.202;7.308;2023-04-01T06:39:04;2.13;;;2.00;;
15858;SDS011;8029;52.202;7.308;2023-04-01T06:44:21;2.92;;;2.10;;
15858;SDS011;8029;52.202;7.308;2023-04-01T06:56:58;2.25;;;2.08;;
15858;SDS011;8029;52.202;7.308;2023-04-01T06:59:27;2.20;;;2.00;;
15858;SDS011;8029;52.202;7.308;2023-04-01T07:01:57;3.00;;;2.42;;
15858;SDS011;8029;52.202;7.308;2023-04-01T07:04:38;1.80;;;1.70;;
15858;SDS011;8029;52.202;7.308;2023-04-01T07:09:56;2.20;;;2.05;;
15858;SDS011;8029;52.202;7.308;2023-04-01T07:15:06;2.65;;;2.45;;
15858;SDS011;8029;52.202;7.308;2023-04-01T07:17:38;2.72;;;2.53;;
15858;SDS011;8029;52.202;7.308;2023-04-01T07:20:13;5.43;;;2.10;;
15858;SDS011;8029;52.202;7.308;2023-04-01T07:22:42;2.15;;;2.05;;
15858;SDS011;8029;52.202;7.308;2023-04-01T07:27:38;2.35;;;2.15;;
15858;SDS011;8029;52.202;7.308;2023-04-01T07:30:12;1.45;;;1.40;;
15858;SDS011;8029;52.202;7.308;2023-04-01T07:32:40;2.40;;;2.22;;
15858;SDS011;8029;52.202;7.308;2023-04-01T07:42:48;1.38;;;1.27;;
15858;SDS011;8029;52.202;7.308;2023-04-01T07:55:15;1.50;;;1.40;;
15858;SDS011;8029;52.202;7.308;2023-04-01T07:57:55;2.40;;;1.40;;
15858;SDS011;8029;52.202;7.308;2023-04-01T08:00:29;2.10;;;1.90;;
15858;SDS011;8029;52.202;7.308;2023-04-01T08:05:26;1.70;;;1.60;;
15858;SDS011;8029;52.202;7.308;2023-04-01T08:13:26;4.30;;;1.73;;
15858;SDS011;8029;52.202;7.308;2023-04-01T08:15:56;1.42;;;1.33;;
15858;SDS011;8029;52.202;7.308;2023-04-01T08:21:00;2.05;;;1.67;;
15858;SDS011;8029;52.202;7.308;2023-04-01T08:23:28;1.55;;;1.45;;
15858;SDS011;8029;52.202;7.308;2023-04-01T08:25:58;1.98;;;1.83;;
15858;SDS011;8029;52.202;7.308;2023-04-01T08:28:34;1.38;;;1.27;;
15858;SDS011;8029;52.202;7.308;2023-04-01T08:33:31;1.90;;;1.80;;
15858;SDS011;8029;52.202;7.308;2023-04-01T08:38:24;1.23;;;1.20;;
15858;SDS011;8029;52.202;7.308;2023-04-01T08:40:57;1.05;;;1.05;;
15858;SDS011;8029;52.202;7.308;2023-04-01T08:54:16;1.17;;;1.08;;
15858;SDS011;8029;52.202;7.308;2023-04-01T08:56:48;0.95;;;0.95;;
15858;SDS011;8029;52.202;7.308;2023-04-01T09:12:19;0.47;;;0.47;;
15858;SDS011;8029;52.202;7.308;2023-04-01T09:41:14;0.70;;;0.70;;
15858;SDS011;8029;52.202;7.308;2023-04-01T09:44:02;0.30;;;0.30;;
15858;SDS011;8029;52.202;7.308;2023-04-01T10:10:17;1.17;;;1.05;;
15858;SDS011;8029;52.202;7.308;2023-04-01T10:15:41;1.23;;;1.13;;
15858;SDS011;8029;52.202;7.308;2023-04-01T10:18:18;0.82;;;0.82;;
15858;SDS011;8029;52.202;7.308;2023-04-01T10:23:27;0.88;;;0.88;;
15858;SDS011;8029;52.202;7.308;2023-04-01T10:46:43;1.23;;;0.75;;
15858;SDS011;8029;52.202;7.308;2023-04-01T10:49:23;1.33;;;1.23;;
15858;SDS011;8029;52.202;7.308;2023-04-01T10:54:57;1.20;;;1.15;;
15858;SDS011;8029;52.202;7.308;2023-04-01T11:13:53;1.35;;;1.27;;
15858;SDS011;8029;52.202;7.308;2023-04-01T11:16:39;1.65;;;1.48;;
15858;SDS011;8029;52.202;7.308;2023-04-01T11:26:54;2.70;;;1.00;;
15858;SDS011;8029;52.202;7.308;2023-04-01T11:43:10;1.15;;;1.02;;
15858;SDS011;8029;52.202;7.308;2023-04-01T11:45:22;1.73;;;1.63;;
15858;SDS011;8029;52.202;7.308;2023-04-01T11:53:27;0.95;;;0.95;;
15858;SDS011;8029;52.202;7.308;2023-04-01T12:04:06;0.82;;;0.82;;
15858;SDS011;8029;52.202;7.308;2023-04-01T12:14:24;1.90;;;1.77;;
15858;SDS011;8029;52.202;7.308;2023-04-01T12:25:06;1.95;;;1.65;;
15858;SDS011;8029;52.202;7.308;2023-04-01T12:33:34;2.17;;;1.98;;
15858;SDS011;8029;52.202;7.308;2023-04-01T12:44:04;1.95;;;1.85;;
15858;SDS011;8029;52.202;7.308;2023-04-01T12:59:27;2.53;;;2.33;;
15858;SDS011;8029;52.202;7.308;2023-04-01T13:09:44;2.28;;;2.08;;
15858;SDS011;8029;52.202;7.308;2023-04-01T13:28:28;2.05;;;1.95;;
15858;SDS011;8029;52.202;7.308;2023-04-01T13:30:58;1.92;;;1.80;;
15858;SDS011;8029;52.202;7.308;2023-04-01T13:33:47;1.30;;;1.30;;
15858;SDS011;8029;52.202;7.308;2023-04-01T13:36:19;1.38;;;1.27;;
15858;SDS011;8029;52.202;7.308;2023-04-01T13:39:05;1.17;;;1.10;;
15858;SDS011;8029;52.202;7.308;2023-04-01T13:41:40;2.90;;;2.38;;
15858;SDS011;8029;52.202;7.308;2023-04-01T13:49:28;1.42;;;1.17;;
15858;SDS011;8029;52.202;7.308;2023-04-01T14:05:08;1.67;;;1.55;;
15858;SDS011;8029;52.202;7.308;2023-04-01T14:13:06;1.38;;;1.27;;
15858;SDS011;8029;52.202;7.308;2023-04-01T14:18:26;1.77;;;1.67;;
15858;SDS011;8029;52.202;7.308;2023-04-01T14:23:48;0.98;;;0.93;;
15858;SDS011;8029;52.202;7.308;2023-04-01T14:28:52;2.10;;;1.70;;
15858;SDS011;8029;52.202;7.308;2023-04-01T14:44:46;1.08;;;1.08;;
15858;SDS011;8029;52.202;7.308;2023-04-01T14:50:14;1.23;;;1.20;;
15858;SDS011;8029;52.202;7.308;2023-04-01T14:53:25;0.88;;;0.88;;
15858;SDS011;8029;52.202;7.308;2023-04-01T14:55:32;0.95;;;0.95;;
15858;SDS011;8029;52.202;7.308;2023-04-01T14:58:00;1.20;;;1.13;;
15858;SDS011;8029;52.202;7.308;2023-04-01T15:00:38;0.93;;;0.93;;
15858;SDS011;8029;52.202;7.308;2023-04-01T15:08:26;1.27;;;1.20;;
15858;SDS011;8029;52.202;7.308;2023-04-01T15:11:16;0.85;;;0.85;;
15858;SDS011;8029;52.202;7.308;2023-04-01T15:13:58;1.65;;;1.08;;
15858;SDS011;8029;52.202;7.308;2023-04-01T15:16:31;1.67;;;1.30;;
15858;SDS011;8029;52.202;7.308;2023-04-01T15:26:49;0.85;;;0.80;;
15858;SDS011;8029;52.202;7.308;2023-04-01T15:31:53;0.88;;;0.82;;
15858;SDS011;8029;52.202;7.308;2023-04-01T15:37:11;0.45;;;0.45;;
15858;SDS011;8029;52.202;7.308;2023-04-01T15:39:54;0.80;;;0.80;;
15858;SDS011;8029;52.202;7.308;2023-04-01T15:42:24;0.70;;;0.70;;
15858;SDS011;8029;52.202;7.308;2023-04-01T15:47:40;2.20;;;0.88;;
15858;SDS011;8029;52.202;7.308;2023-04-01T15:53:03;0.55;;;0.55;;
15858;SDS011;8029;52.202;7.308;2023-04-01T15:55:46;0.55;;;0.55;;
15858;SDS011;8029;52.202;7.308;2023-04-01T15:58:25;0.45;;;0.45;;
15858;SDS011;8029;52.202;7.308;2023-04-01T16:03:48;0.35;;;0.35;;
15858;SDS011;8029;52.202;7.308;2023-04-01T16:06:19;0.30;;;0.30;;
15858;SDS011;8029;52.202;7.308;2023-04-01T16:08:59;1.70;;;1.00;;
15858;SDS011;8029;52.202;7.308;2023-04-01T16:16:38;0.73;;;0.63;;
15858;SDS011;8029;52.202;7.308;2023-04-01T16:21:53;1.15;;;0.77;;
15858;SDS011;8029;52.202;7.308;2023-04-01T16:29:52;0.43;;;0.43;;
15858;SDS011;8029;52.202;7.308;2023-04-01T16:34:55;0.63;;;0.63;;
15858;SDS011;8029;52.202;7.308;2023-04-01T16:37:30;0.40;;;0.40;;
15858;SDS011;8029;52.202;7.308;2023-04-01T16:40:12;0.68;;;0.68;;
15858;SDS011;8029;52.202;7.308;2023-04-01T16:47:35;0.63;;;0.50;;
15858;SDS011;8029;52.202;7.308;2023-04-01T16:50:14;0.50;;;0.50;;
15858;SDS011;8029;52.202;7.308;2023-04-01T16:52:48;0.68;;;0.68;;
15858;SDS011;8029;52.202;7.308;2023-04-01T16:55:36;0.68;;;0.68;;
15858;SDS011;8029;52.202;7.308;2023-04-01T16:58:07;0.63;;;0.63;;
15858;SDS011;8029;52.202;7.308;2023-04-01T17:00:39;0.70;;;0.70;;
15858;SDS011;8029;52.202;7.308;2023-04-01T17:05:36;1.60;;;1.50;;
15858;SDS011;8029;52.202;7.308;2023-04-01T17:13:41;0.73;;;0.73;;
15858;SDS011;8029;52.202;7.308;2023-04-01T17:16:31;1.38;;;0.77;;
15858;SDS011;8029;52.202;7.308;2023-04-01T17:21:38;0.20;;;0.20;;
15858;SDS011;8029;52.202;7.308;2023-04-01T17:26:59;0.10;;;0.10;;
15858;SDS011;8029;52.202;7.308;2023-04-01T17:35:09;0.20;;;0.20;;
15858;SDS011;8029;52.202;7.308;2023-04-01T17:50:24;0.70;;;0.70;;
15858;SDS011;8029;52.202;7.308;2023-04-01T17:53:09;0.40;;;0.40;;
15858;SDS011;8029;52.202;7.308;2023-04-01T17:55:43;0.50;;;0.50;;
15858;SDS011;8029;52.202;7.308;2023-04-01T17:58:17;0.50;;;0.50;;
15858;SDS011;8029;52.202;7.308;2023-04-01T18:05:41;0.35;;;0.35;;
15858;SDS011;8029;52.202;7.308;2023-04-01T18:08:15;0.40;;;0.40;;
15858;SDS011;8029;52.202;7.308;2023-04-01T18:13:13;0.70;;;0.60;;
15858;SDS011;8029;52.202;7.308;2023-04-01T18:18:23;1.85;;;0.60;;
15858;SDS011;8029;52.202;7.308;2023-04-01T18:25:47;0.95;;;0.95;;
15858;SDS011;8029;52.202;7.308;2023-04-01T18:30:43;0.40;;;0.40;;
15858;SDS011;8029;52.202;7.308;2023-04-01T18:38:33;0.40;;;0.40;;
15858;SDS011;8029;52.202;7.308;2023-04-01T18:41:24;0.52;;;0.52;;
15858;SDS011;8029;52.202;7.308;2023-04-01T18:51:55;0.30;;;0.30;;
15858;SDS011;8029;52.202;7.308;2023-04-01T18:56:58;0.40;;;0.40;;
15858;SDS011;8029;52.202;7.308;2023-04-01T18:59:28;0.30;;;0.30;;
15858;SDS011;8029;52.202;7.308;2023-04-01T19:06:52;0.77;;;0.77;;
15858;SDS011;8029;52.202;7.308;2023-04-01T19:09:24;0.45;;;0.45;;
15858;SDS011;8029;52.202;7.308;2023-04-01T19:17:45;0.50;;;0.50;;
15858;SDS011;8029;52.202;7.308;2023-04-01T19:27:53;1.48;;;1.00;;
15858;SDS011;8029;52.202;7.308;2023-04-01T19:30:33;0.80;;;0.80;;
15858;SDS011;8029;52.202;7.308;2023-04-01T19:35:55;0.50;;;0.50;;
15858;SDS011;8029;52.202;7.308;2023-04-01T19:38:39;0.73;;;0.70;;
15858;SDS011;8029;52.202;7.308;2023-04-01T19:43:46;0.95;;;0.95;;
15858;SDS011;8029;52.202;7.308;2023-04-01T19:46:38;1.00;;;1.00;;
15858;SDS011;8029;52.202;7.308;2023-04-01T19:59:37;1.25;;;0.45;;
15858;SDS011;8029;52.202;7.308;2023-04-01T20:04:38;0.82;;;0.82;;
15858;SDS011;8029;52.202;7.308;2023-04-01T20:09:50;0.55;;;0.55;;
15858;SDS011;8029;52.202;7.308;2023-04-01T20:14:47;0.63;;;0.63;;
15858;SDS011;8029;52.202;7.308;2023-04-01T20:17:24;5.05;;;1.23;;
15858;SDS011;8029;52.202;7.308;2023-04-01T20:19:59;0.80;;;0.80;;
15858;SDS011;8029;52.202;7.308;2023-04-01T20:25:12;0.40;;;0.40;;
15858;SDS011;8029;52.202;7.308;2023-04-01T20:27:45;0.98;;;0.90;;
15858;SDS011;8029;52.202;7.308;2023-04-01T20:32:48;1.33;;;1.23;;
15858;SDS011;8029;52.202;7.308;2023-04-01T20:38:06;1.00;;;0.98;;
15858;SDS011;8029;52.202;7.308;2023-04-01T20:53:23;0.65;;;0.65;;
15858;SDS011;8029;52.202;7.308;2023-04-01T21:01:47;1.10;;;0.75;;
15858;SDS011;8029;52.202;7.308;2023-04-01T21:04:22;0.70;;;0.70;;
15858;SDS011;8029;52.202;7.308;2023-04-01T21:17:01;1.05;;;0.98;;
15858;SDS011;8029;52.202;7.308;2023-04-01T21:27:33;0.55;;;0.55;;
15858;SDS011;8029;52.202;7.308;2023-04-01T21:42:48;1.35;;;1.25;;
15858;SDS011;8029;52.202;7.308;2023-04-01T21:45:21;1.35;;;1.30;;
15858;SDS011;8029;52.202;7.308;2023-04-01T22:01:01;1.10;;;1.10;;
15858;SDS011;8029;52.202;7.308;2023-04-01T22:06:19;1.13;;;0.88;;
15858;SDS011;8029;52.202;7.308;2023-04-01T22:14:15;1.58;;;1.23;;
15858;SDS011;8029;52.202;7.308;2023-04-01T22:17:27;1.58;;;1.10;;
15858;SDS011;8029;52.202;7.308;2023-04-01T22:24:43;1.40;;;1.30;;
15858;SDS011;8029;52.202;7.308;2023-04-01T22:27:17;1.55;;;1.45;;
15858;SDS011;8029;52.202;7.308;2023-04-01T22:29:57;1.30;;;1.20;;
15858;SDS011;8029;52.202;7.308;2023-04-01T22:32:37;1.05;;;1.05;;
15858;SDS011;8029;52.202;7.308;2023-04-01T22:35:10;0.70;;;0.70;;
15858;SDS011;8029;52.202;7.308;2023-04-01T22:40:14;0.82;;;0.82;;
15858;SDS011;8029;52.202;7.308;2023-04-01T22:53:05;1.10;;;0.95;;
15858;SDS011;8029;52.202;7.308;2023-04-01T22:55:35;1.33;;;1.23;;
15858;SDS011;8029;52.202;7.308;2023-04-01T22:58:04;0.98;;;0.98;;
15858;SDS011;8029;52.202;7.308;2023-04-01T23:00:35;4.60;;;1.63;;
15858;SDS011;8029;52.202;7.308;2023-04-01T23:03:22;0.68;;;0.68;;
15858;SDS011;8029;52.202;7.308;2023-04-01T23:05:53;0.93;;;0.80;;
15858;SDS011;8029;52.202;7.308;2023-04-01T23:08:41;1.48;;;1.30;;
15858;SDS011;8029;52.202;7.308;2023-04-01T23:11:25;1.00;;;1.00;;
15858;SDS011;8029;52.202;7.308;2023-04-01T23:14:39;0.73;;;0.73;;
15858;SDS011;8029;52.202;7.308;2023-04-01T23:16:43;1.48;;;1.40;;
15858;SDS011;8029;52.202;7.308;2023-04-01T23:19:17;1.95;;;1.48;;
15858;SDS011;8029;52.202;7.308;2023-04-01T23:21:49;2.05;;;1.83;;
15858;SDS011;8029;52.202;7.308;2023-04-01T23:24:22;1.63;;;1.52;;
15858;SDS011;8029;52.202;7.308;2023-04-01T23:27:36;3.15;;;2.03;;
15858;SDS011;8029;52.202;7.308;2023-04-01T23:29:41;1.58;;;1.48;;
15858;SDS011;8029;52.202;7.308;2023-04-01T23:32:15;1.58;;;1.48;;
15858;SDS011;8029;52.202;7.308;2023-04-01T23:34:46;2.00;;;1.70;;
15858;SDS011;8029;52.202;7.308;2023-04-01T23:37:12;1.70;;;1.60;;
15858;SDS011;8029;52.202;7.308;2023-04-01T23:39:51;1.33;;;1.23;;
15858;SDS011;8029;52.202;7.308;2023-04-01T23:44:44;1.33;;;1.30;;
15858;SDS011;8029;52.202;7.308;2023-04-01T23:47:12;3.05;;;1.85;;
15858;SDS011;8029;52.202;7.308;2023-04-01T23:49:40;1.60;;;1.50;;
15858;SDS011;8029;52.202;7.308;2023-04-01T23:57:13;1.85;;;1.75;;
15858;SDS011;8029;52.202;7.308;2023-04-01T23:59:40;1.70;;;1.60;;
